createdAt,value
2019-06-07T00:00:33.268Z,3.10
2019-06-07T00:02:43.231Z,3.20
2019-06-07T00:05:12.727Z,2.60
2019-06-07T00:07:40.242Z,2.97
2019-06-07T00:10:07.103Z,3.17
2019-06-07T00:12:35.191Z,3.67
2019-06-07T00:15:02.036Z,3.67
2019-06-07T00:17:29.393Z,3.73
2019-06-07T00:19:56.198Z,2.90
2019-06-07T00:22:33.028Z,3.50
2019-06-07T00:24:52.285Z,4.00
2019-06-07T00:27:22.256Z,3.60
2019-06-07T00:29:47.619Z,4.10
2019-06-07T00:32:18.151Z,3.43
2019-06-07T00:34:43.146Z,3.17
2019-06-07T00:37:12.372Z,2.90
2019-06-07T00:39:39.753Z,3.10
2019-06-07T00:42:06.831Z,3.30
2019-06-07T00:44:33.894Z,3.43
2019-06-07T00:47:00.958Z,4.17
2019-06-07T00:49:40.420Z,3.90
2019-06-07T00:51:57.858Z,4.57
2019-06-07T00:54:25.277Z,3.73
2019-06-07T00:56:52.524Z,3.90
2019-06-07T00:59:24.393Z,3.67
2019-06-07T01:01:48.811Z,4.20
2019-06-07T01:04:19.389Z,4.00
2019-06-07T01:06:44.703Z,3.97
2019-06-07T01:09:13.079Z,3.83
2019-06-07T01:11:40.699Z,4.40
2019-06-07T01:14:07.687Z,4.03
2019-06-07T01:16:55.248Z,3.77
2019-06-07T01:19:03.827Z,4.50
2019-06-07T01:21:30.812Z,3.67
2019-06-07T01:24:11.480Z,4.50
2019-06-07T01:26:30.193Z,4.53
2019-06-07T01:28:55.947Z,3.90
2019-06-07T01:31:25.422Z,4.20
2019-06-07T01:33:52.044Z,4.33
2019-06-07T01:36:20.068Z,4.23
2019-06-07T01:38:47.815Z,3.40
2019-06-07T01:41:17.345Z,4.90
2019-06-07T01:43:45.767Z,3.90
2019-06-07T01:46:12.714Z,3.67
2019-06-07T01:48:49.469Z,4.00
2019-06-07T01:51:09.264Z,4.43
2019-06-07T01:53:36.238Z,4.27
2019-06-07T01:56:02.855Z,4.00
2019-06-07T01:58:29.791Z,4.73
2019-06-07T02:00:57.011Z,3.53
2019-06-07T02:03:26.957Z,4.30
2019-06-07T02:05:53.759Z,3.97
2019-06-07T02:08:21.698Z,4.57
2019-06-07T02:10:49.271Z,4.63
2019-06-07T02:13:16.480Z,4.20
2019-06-07T02:15:43.453Z,4.10
2019-06-07T02:18:11.794Z,4.93
2019-06-07T02:20:39.052Z,5.47
2019-06-07T02:23:05.670Z,4.43
2019-06-07T02:25:43.932Z,4.40
2019-06-07T02:28:26.567Z,5.03
2019-06-07T02:30:47.541Z,5.23
2019-06-07T02:32:59.820Z,4.33
2019-06-07T02:35:34.911Z,4.40
2019-06-07T02:37:55.284Z,4.67
2019-06-07T02:40:24.111Z,3.83
2019-06-07T02:42:52.003Z,4.50
2019-06-07T02:45:24.177Z,4.10
2019-06-07T02:47:59.207Z,4.10
2019-06-07T02:50:28.310Z,4.03
2019-06-07T02:52:55.348Z,4.60
2019-06-07T02:55:24.894Z,5.13
2019-06-07T02:57:51.483Z,5.03
2019-06-07T03:00:54.982Z,4.73
2019-06-07T03:03:06.226Z,4.73
2019-06-07T03:05:36.299Z,4.93
2019-06-07T03:08:02.119Z,4.97
2019-06-07T03:10:31.402Z,4.90
2019-06-07T03:12:58.039Z,5.57
2019-06-07T03:15:35.374Z,4.90
2019-06-07T03:18:05.447Z,4.40
2019-06-07T03:20:34.659Z,4.77
2019-06-07T03:23:03.455Z,5.47
2019-06-07T03:25:37.025Z,5.97
2019-06-07T03:28:05.482Z,5.30
2019-06-07T03:30:42.838Z,5.80
2019-06-07T03:33:00.988Z,5.03
2019-06-07T03:35:29.803Z,5.27
2019-06-07T03:37:56.119Z,5.57
2019-06-07T03:40:23.115Z,5.60
2019-06-07T03:42:49.727Z,5.20
2019-06-07T03:45:16.358Z,5.33
2019-06-07T03:47:43.453Z,5.80
2019-06-07T03:50:10.489Z,5.07
2019-06-07T03:52:40.973Z,6.10
2019-06-07T03:55:05.894Z,5.70
2019-06-07T03:58:24.788Z,5.20
2019-06-07T04:00:01.023Z,4.97
2019-06-07T04:02:30.363Z,5.40
2019-06-07T04:04:57.183Z,4.87
2019-06-07T04:07:23.838Z,5.30
2019-06-07T04:09:50.806Z,5.73
2019-06-07T04:12:17.918Z,5.23
2019-06-07T04:14:44.563Z,6.03
2019-06-07T04:17:11.596Z,5.50
2019-06-07T04:19:43.140Z,6.20
2019-06-07T04:22:07.927Z,5.20
2019-06-07T04:24:39.838Z,5.63
2019-06-07T04:27:04.063Z,6.20
2019-06-07T04:29:35.628Z,6.57
2019-06-07T04:32:01.547Z,5.87
2019-06-07T04:34:29.286Z,8.60
2019-06-07T04:36:59.572Z,9.17
2019-06-07T04:39:26.879Z,6.50
2019-06-07T04:41:54.542Z,5.73
2019-06-07T04:44:22.667Z,6.47
2019-06-07T04:46:50.609Z,5.90
2019-06-07T04:49:19.267Z,4.73
2019-06-07T04:51:46.634Z,5.43
2019-06-07T04:54:13.576Z,5.80
2019-06-07T04:56:44.128Z,5.30
2019-06-07T04:59:09.519Z,6.07
2019-06-07T05:01:41.430Z,5.60
2019-06-07T05:04:06.771Z,6.17
2019-06-07T05:06:36.285Z,6.30
2019-06-07T05:09:02.204Z,5.23
2019-06-07T05:11:31.992Z,4.80
2019-06-07T05:13:59.035Z,4.60
2019-06-07T05:16:26.427Z,12.63
2019-06-07T05:18:54.494Z,8.70
2019-06-07T05:21:21.737Z,4.80
2019-06-07T05:24:06.817Z,4.87
2019-06-07T05:26:17.573Z,4.90
2019-06-07T05:28:44.179Z,4.07
2019-06-07T05:31:11.249Z,4.57
2019-06-07T05:33:38.940Z,4.50
2019-06-07T05:36:06.386Z,4.07
2019-06-07T05:38:33.500Z,3.80
2019-06-07T05:41:01.295Z,3.80
2019-06-07T05:43:28.655Z,2.97
2019-06-07T05:45:55.977Z,3.77
2019-06-07T05:48:23.072Z,3.03
2019-06-07T05:50:56.480Z,3.47
2019-06-07T05:53:18.300Z,3.23
2019-06-07T05:55:47.668Z,3.07
2019-06-07T05:58:15.599Z,3.07
2019-06-07T06:00:44.613Z,3.50
2019-06-07T06:03:12.051Z,3.07
2019-06-07T06:05:43.304Z,2.87
2019-06-07T06:08:09.012Z,3.00
2019-06-07T06:10:37.695Z,2.90
2019-06-07T06:13:05.259Z,4.73
2019-06-07T06:15:42.126Z,4.57
2019-06-07T06:18:00.527Z,4.80
2019-06-07T06:20:32.963Z,5.00
2019-06-07T06:22:56.119Z,4.10
2019-06-07T06:25:33.843Z,5.00
2019-06-07T06:28:10.215Z,4.70
2019-06-07T06:30:23.743Z,3.63
2019-06-07T06:32:57.733Z,4.77
2019-06-07T06:35:20.288Z,4.70
2019-06-07T06:37:52.719Z,5.30
2019-06-07T06:40:16.229Z,3.27
2019-06-07T06:42:45.429Z,3.30
2019-06-07T06:45:14.024Z,3.50
2019-06-07T06:47:43.158Z,3.80
2019-06-07T06:50:10.457Z,3.40
2019-06-07T06:52:42.228Z,3.00
2019-06-07T06:55:08.543Z,3.07
2019-06-07T06:57:36.405Z,3.47
2019-06-07T07:00:05.539Z,3.20
2019-06-07T07:02:33.786Z,3.03
2019-06-07T07:05:00.822Z,3.37
2019-06-07T07:07:29.634Z,3.90
2019-06-07T07:09:59.584Z,3.50
2019-06-07T07:12:28.102Z,3.67
2019-06-07T07:14:56.083Z,3.40
2019-06-07T07:17:46.724Z,3.20
2019-06-07T07:19:53.101Z,3.30
2019-06-07T07:22:20.523Z,3.17
2019-06-07T07:24:49.761Z,3.50
2019-06-07T07:27:16.598Z,4.00
2019-06-07T07:29:46.041Z,3.17
2019-06-07T07:32:13.087Z,2.33
2019-06-07T07:34:40.175Z,2.83
2019-06-07T07:37:11.967Z,2.83
2019-06-07T07:39:39.516Z,2.57
2019-06-07T07:42:20.112Z,2.83
2019-06-07T07:44:34.894Z,2.80
2019-06-07T07:47:02.679Z,2.87
2019-06-07T07:49:29.627Z,3.40
2019-06-07T07:51:58.760Z,2.30
2019-06-07T07:54:26.105Z,2.23
2019-06-07T07:56:56.163Z,2.10
2019-06-07T07:59:40.736Z,2.17
2019-06-07T08:01:55.417Z,2.63
2019-06-07T08:04:38.893Z,2.20
2019-06-07T08:06:51.562Z,2.10
2019-06-07T08:09:17.824Z,1.93
2019-06-07T08:11:47.235Z,1.93
2019-06-07T08:14:13.103Z,2.23
2019-06-07T08:16:40.071Z,2.13
2019-06-07T08:19:06.691Z,2.27
2019-06-07T08:21:33.315Z,2.20
2019-06-07T08:24:04.513Z,2.40
2019-06-07T08:26:30.154Z,1.80
2019-06-07T08:29:02.346Z,1.90
2019-06-07T08:31:26.806Z,2.20
2019-06-07T08:33:58.053Z,1.30
2019-06-07T08:36:40.696Z,1.23
2019-06-07T08:38:57.053Z,1.50
2019-06-07T08:41:21.279Z,1.80
2019-06-07T08:43:49.227Z,1.13
2019-06-07T08:46:17.720Z,1.90
2019-06-07T08:48:44.639Z,2.30
2019-06-07T08:51:11.526Z,3.43
2019-06-07T08:53:38.150Z,3.07
2019-06-07T08:56:09.187Z,2.33
2019-06-07T08:58:33.310Z,2.40
2019-06-07T09:01:07.703Z,2.30
2019-06-07T09:03:29.467Z,1.90
2019-06-07T09:06:00.520Z,1.80
2019-06-07T09:08:30.375Z,2.07
2019-06-07T09:10:56.399Z,2.27
2019-06-07T09:13:22.448Z,2.40
2019-06-07T09:15:49.427Z,1.70
2019-06-07T09:18:40.856Z,1.83
2019-06-07T09:20:47.355Z,2.10
2019-06-07T09:23:17.032Z,2.80
2019-06-07T09:25:56.760Z,1.70
2019-06-07T09:28:19.460Z,1.50
2019-06-07T09:30:43.071Z,1.50
2019-06-07T09:33:11.192Z,2.20
2019-06-07T09:35:39.323Z,1.57
2019-06-07T09:38:22.934Z,1.70
2019-06-07T09:40:34.850Z,1.83
2019-06-07T09:43:47.591Z,1.90
2019-06-07T09:45:30.815Z,2.30
2019-06-07T09:47:59.347Z,2.43
2019-06-07T09:50:27.133Z,1.60
2019-06-07T09:52:58.674Z,1.60
2019-06-07T09:55:25.073Z,1.40
2019-06-07T09:57:52.991Z,1.80
2019-06-07T10:00:40.155Z,2.17
2019-06-07T10:02:49.744Z,2.23
2019-06-07T10:05:16.887Z,1.67
2019-06-07T10:08:00.493Z,1.70
2019-06-07T10:12:44.327Z,2.00
2019-06-07T10:15:11.144Z,1.63
2019-06-07T10:17:38.876Z,1.90
2019-06-07T10:20:05.833Z,1.70
2019-06-07T10:22:32.554Z,1.77
2019-06-07T10:24:59.663Z,1.40
2019-06-07T10:27:26.712Z,1.40
2019-06-07T10:29:53.655Z,1.30
2019-06-07T10:32:20.295Z,1.63
2019-06-07T10:34:47.445Z,1.53
2019-06-07T10:37:15.738Z,1.40
2019-06-07T10:39:48.523Z,2.00
2019-06-07T10:42:12.623Z,1.30
2019-06-07T10:44:39.700Z,1.30
2019-06-07T10:47:07.998Z,1.10
2019-06-07T10:49:37.042Z,0.80
2019-06-07T10:52:06.622Z,1.17
2019-06-07T10:54:33.732Z,0.87
2019-06-07T10:57:02.935Z,1.03
2019-06-07T10:59:30.158Z,1.20
2019-06-07T11:01:58.269Z,0.90
2019-06-07T11:04:25.404Z,0.90
2019-06-07T11:06:53.858Z,1.03
2019-06-07T11:09:22.019Z,1.30
2019-06-07T11:11:50.308Z,1.07
2019-06-07T11:14:21.247Z,1.33
2019-06-07T11:16:48.243Z,1.13
2019-06-07T11:19:17.916Z,1.53
2019-06-07T11:21:44.958Z,1.50
2019-06-07T11:24:12.799Z,1.33
2019-06-07T11:26:40.787Z,1.37
2019-06-07T11:29:08.941Z,1.20
2019-06-07T11:31:38.851Z,1.27
2019-06-07T11:34:06.326Z,1.03
2019-06-07T11:36:33.087Z,1.13
2019-06-07T11:38:59.731Z,1.13
2019-06-07T11:41:26.811Z,1.23
2019-06-07T11:43:54.104Z,1.60
2019-06-07T11:46:20.907Z,1.30
2019-06-07T11:48:47.946Z,1.40
2019-06-07T11:51:15.067Z,1.47
2019-06-07T11:53:42.887Z,1.47
2019-06-07T11:56:10.349Z,1.30
2019-06-07T11:58:37.223Z,1.20
2019-06-07T12:01:04.465Z,1.33
2019-06-07T12:03:31.127Z,1.67
2019-06-07T12:05:59.976Z,1.43
2019-06-07T12:08:27.014Z,1.13
2019-06-07T12:10:54.084Z,1.80
2019-06-07T12:13:21.331Z,1.30
2019-06-07T12:15:49.407Z,1.40
2019-06-07T12:18:17.883Z,1.50
2019-06-07T12:20:44.879Z,4.10
2019-06-07T12:23:12.037Z,2.80
2019-06-07T12:25:39.127Z,2.47
2019-06-07T12:28:07.083Z,3.30
2019-06-07T12:30:34.655Z,1.57
2019-06-07T12:33:01.289Z,1.80
2019-06-07T12:35:30.798Z,1.07
2019-06-07T12:37:58.154Z,1.20
2019-06-07T12:40:30.595Z,1.33
2019-06-07T12:42:53.979Z,6.17
2019-06-07T12:45:40.094Z,1.97
2019-06-07T12:47:51.559Z,3.87
2019-06-07T12:50:21.589Z,2.80
2019-06-07T12:52:48.488Z,1.47
2019-06-07T12:55:16.024Z,2.10
2019-06-07T12:57:44.261Z,2.63
2019-06-07T13:00:11.408Z,4.23
2019-06-07T13:02:38.332Z,2.50
2019-06-07T13:05:05.588Z,2.07
2019-06-07T13:07:32.203Z,1.50
2019-06-07T13:09:58.859Z,1.70
2019-06-07T13:12:26.499Z,2.00
2019-06-07T13:14:54.508Z,1.17
2019-06-07T13:17:22.290Z,1.33
2019-06-07T13:19:49.375Z,1.90
2019-06-07T13:22:16.202Z,1.57
2019-06-07T13:24:45.669Z,1.70
2019-06-07T13:27:12.918Z,1.77
2019-06-07T13:29:39.523Z,1.60
2019-06-07T13:32:06.314Z,2.20
2019-06-07T13:34:33.242Z,2.57
2019-06-07T13:36:59.874Z,1.30
2019-06-07T13:39:29.705Z,1.50
2019-06-07T13:41:56.120Z,1.23
2019-06-07T13:44:25.043Z,3.20
2019-06-07T13:46:52.489Z,2.07
2019-06-07T13:49:19.523Z,1.40
2019-06-07T13:51:47.830Z,1.43
2019-06-07T13:54:14.783Z,1.53
2019-06-07T13:57:00.696Z,1.70
2019-06-07T13:59:10.578Z,1.50
2019-06-07T14:01:38.236Z,4.00
2019-06-07T14:04:04.964Z,4.57
2019-06-07T14:06:31.964Z,2.40
2019-06-07T14:08:59.019Z,2.90
2019-06-07T14:11:25.697Z,2.07
2019-06-07T14:13:52.415Z,1.13
2019-06-07T14:16:20.042Z,1.90
2019-06-07T14:18:47.605Z,2.30
2019-06-07T14:21:15.438Z,2.30
2019-06-07T14:23:48.830Z,1.50
2019-06-07T14:26:11.190Z,2.47
2019-06-07T14:28:38.174Z,1.77
2019-06-07T14:31:05.245Z,2.97
2019-06-07T14:33:33.825Z,3.67
2019-06-07T14:36:01.195Z,3.70
2019-06-07T14:38:31.227Z,1.70
2019-06-07T14:40:57.847Z,6.60
2019-06-07T14:43:25.144Z,3.77
2019-06-07T14:45:51.855Z,3.40
2019-06-07T14:48:18.882Z,2.40
2019-06-07T14:50:45.511Z,1.70
2019-06-07T14:53:14.004Z,3.30
2019-06-07T14:55:41.976Z,5.33
2019-06-07T14:58:09.645Z,2.53
2019-06-07T15:00:38.884Z,2.03
2019-06-07T15:03:05.647Z,1.90
2019-06-07T15:05:32.910Z,1.43
2019-06-07T15:08:03.788Z,1.83
2019-06-07T15:10:31.942Z,1.93
2019-06-07T15:12:59.019Z,2.63
2019-06-07T15:15:26.412Z,1.83
2019-06-07T15:17:55.289Z,1.83
2019-06-07T15:20:22.312Z,1.93
2019-06-07T15:22:49.088Z,2.70
2019-06-07T15:25:15.703Z,5.35
2019-06-07T15:27:42.353Z,2.37
2019-06-07T15:30:10.667Z,3.30
2019-06-07T15:32:39.579Z,1.60
2019-06-07T15:35:07.123Z,1.57
2019-06-07T15:37:34.600Z,1.67
2019-06-07T15:40:03.194Z,1.60
2019-06-07T15:42:42.976Z,1.57
2019-06-07T15:44:59.810Z,2.87
2019-06-07T15:47:29.559Z,2.70
2019-06-07T15:49:57.111Z,1.87
2019-06-07T15:52:25.259Z,2.13
2019-06-07T15:54:52.558Z,2.77
2019-06-07T15:57:19.552Z,1.23
2019-06-07T15:59:46.711Z,2.20
2019-06-07T16:02:15.703Z,2.53
2019-06-07T16:04:44.691Z,1.73
2019-06-07T16:07:12.149Z,1.70
2019-06-07T16:09:40.590Z,1.77
2019-06-07T16:12:07.330Z,2.25
2019-06-07T16:14:35.045Z,2.00
2019-06-07T16:17:01.774Z,2.63
2019-06-07T16:19:28.711Z,1.70
2019-06-07T16:21:56.674Z,1.40
2019-06-07T16:24:24.430Z,1.30
2019-06-07T16:26:51.046Z,1.60
2019-06-07T16:29:19.066Z,1.70
2019-06-07T16:31:47.703Z,1.50
2019-06-07T16:34:15.719Z,2.80
2019-06-07T16:36:42.607Z,2.90
2019-06-07T16:39:10.316Z,2.20
2019-06-07T16:41:38.371Z,2.10
2019-06-07T16:44:05.309Z,2.60
2019-06-07T16:46:32.275Z,1.67
2019-06-07T16:48:58.906Z,1.80
2019-06-07T16:51:26.267Z,2.67
2019-06-07T16:53:53.722Z,2.50
2019-06-07T16:56:21.706Z,1.90
2019-06-07T16:58:48.785Z,2.60
2019-06-07T17:01:15.836Z,4.00
2019-06-07T17:03:45.583Z,7.90
2019-06-07T17:06:14.591Z,3.33
2019-06-07T17:08:42.141Z,1.80
2019-06-07T17:11:09.327Z,2.40
2019-06-07T17:13:36.061Z,2.00
2019-06-07T17:16:03.401Z,2.43
2019-06-07T17:18:30.880Z,1.80
2019-06-07T17:20:58.139Z,6.70
2019-06-07T17:23:27.009Z,1.77
2019-06-07T17:25:55.835Z,2.20
2019-06-07T17:28:22.872Z,2.67
2019-06-07T17:30:51.021Z,2.13
2019-06-07T17:33:18.768Z,1.70
2019-06-07T17:35:46.473Z,2.30
2019-06-07T17:38:14.563Z,2.13
2019-06-07T17:40:44.987Z,3.03
2019-06-07T17:43:16.908Z,2.13
2019-06-07T17:45:45.299Z,2.27
2019-06-07T17:48:15.202Z,2.40
2019-06-07T17:50:42.228Z,2.07
2019-06-07T17:53:09.879Z,2.30
2019-06-07T17:55:38.163Z,2.20
2019-06-07T17:58:04.779Z,1.93
2019-06-07T18:00:44.570Z,1.93
2019-06-07T18:03:13.535Z,2.63
2019-06-07T18:05:43.192Z,2.27
2019-06-07T18:08:10.624Z,3.07
2019-06-07T18:10:38.294Z,2.63
2019-06-07T18:13:05.939Z,2.50
2019-06-07T18:15:36.652Z,2.40
2019-06-07T18:18:03.508Z,2.90
2019-06-07T18:20:33.280Z,2.70
2019-06-07T18:23:01.804Z,2.93
2019-06-07T18:25:28.462Z,3.03
2019-06-07T18:27:56.101Z,2.87
2019-06-07T18:30:22.762Z,2.40
2019-06-07T18:32:50.819Z,2.77
2019-06-07T18:35:18.211Z,3.63
2019-06-07T18:37:57.139Z,2.60
2019-06-07T18:40:24.966Z,2.50
2019-06-07T18:42:51.596Z,2.87
2019-06-07T18:45:18.792Z,3.00
2019-06-07T18:47:45.415Z,3.00
2019-06-07T18:50:12.014Z,3.17
2019-06-07T18:52:40.301Z,3.40
2019-06-07T18:55:08.880Z,2.23
2019-06-07T18:57:36.227Z,2.60
2019-06-07T19:00:04.911Z,2.57
2019-06-07T19:02:32.599Z,2.60
2019-06-07T19:04:59.636Z,2.77
2019-06-07T19:07:31.071Z,2.90
2019-06-07T19:09:59.467Z,2.30
2019-06-07T19:12:26.922Z,2.47
2019-06-07T19:14:53.889Z,2.87
2019-06-07T19:17:20.513Z,2.13
2019-06-07T19:19:49.823Z,2.70
2019-06-07T19:22:16.846Z,2.93
2019-06-07T19:24:44.197Z,2.80
2019-06-07T19:27:11.139Z,3.40
2019-06-07T19:29:38.494Z,3.20
2019-06-07T19:32:05.545Z,3.10
2019-06-07T19:34:33.283Z,3.97
2019-06-07T19:37:02.006Z,2.83
2019-06-07T19:39:29.651Z,2.83
2019-06-07T19:42:02.239Z,3.03
2019-06-07T19:44:30.083Z,3.27
2019-06-07T19:46:56.886Z,3.70
2019-06-07T19:49:24.391Z,3.70
2019-06-07T19:51:51.155Z,3.70
2019-06-07T19:54:18.596Z,4.40
2019-06-07T19:56:45.544Z,3.80
2019-06-07T19:59:12.197Z,3.33
2019-06-07T20:01:40.204Z,3.27
2019-06-07T20:04:07.895Z,3.57
2019-06-07T20:06:34.631Z,3.63
2019-06-07T20:09:01.302Z,4.03
2019-06-07T20:11:30.172Z,4.50
2019-06-07T20:13:57.193Z,4.90
2019-06-07T20:16:24.883Z,5.20
2019-06-07T20:18:51.711Z,4.13
2019-06-07T20:21:18.772Z,4.37
2019-06-07T20:23:46.735Z,4.63
2019-06-07T20:26:13.364Z,4.70
2019-06-07T20:28:40.132Z,4.50
2019-06-07T20:31:08.249Z,5.03
2019-06-07T20:33:35.236Z,5.57
2019-06-07T20:36:02.752Z,4.17
2019-06-07T20:38:29.664Z,5.37
2019-06-07T20:40:57.002Z,5.10
2019-06-07T20:43:24.452Z,5.00
2019-06-07T20:45:52.051Z,4.73
2019-06-07T20:48:20.057Z,6.13
2019-06-07T20:50:47.783Z,5.80
2019-06-07T20:53:14.800Z,5.50
2019-06-07T20:55:41.855Z,6.30
2019-06-07T20:58:09.505Z,6.13
2019-06-07T21:00:37.711Z,6.83
2019-06-07T21:03:05.381Z,6.00
2019-06-07T21:05:35.870Z,6.90
2019-06-07T21:08:04.148Z,6.40
2019-06-07T21:10:33.231Z,7.30
2019-06-07T21:13:00.231Z,6.77
2019-06-07T21:15:26.891Z,5.90
2019-06-07T21:17:53.960Z,5.97
2019-06-07T21:20:20.617Z,7.37
2019-06-07T21:22:51.620Z,6.90
2019-06-07T21:25:19.408Z,7.40
2019-06-07T21:27:46.097Z,7.67
2019-06-07T21:30:14.527Z,7.80
2019-06-07T21:32:41.489Z,7.13
2019-06-07T21:35:12.413Z,8.80
2019-06-07T21:37:39.739Z,7.87
2019-06-07T21:40:08.035Z,8.67
2019-06-07T21:42:36.083Z,7.30
2019-06-07T21:45:05.697Z,8.03
2019-06-07T21:47:31.823Z,7.30
2019-06-07T21:49:59.593Z,7.30
2019-06-07T21:52:26.219Z,7.17
2019-06-07T21:54:53.182Z,8.60
2019-06-07T21:57:20.880Z,8.33
2019-06-07T21:59:47.536Z,8.73
2019-06-07T22:02:14.603Z,8.07
2019-06-07T22:04:41.451Z,8.80
2019-06-07T22:07:09.548Z,9.53
2019-06-07T22:09:36.364Z,7.67
2019-06-07T22:12:04.476Z,7.63
2019-06-07T22:14:32.427Z,7.77
2019-06-07T22:17:00.195Z,8.30
2019-06-07T22:19:27.176Z,8.20
2019-06-07T22:22:02.697Z,7.90
2019-06-07T22:24:24.003Z,7.90
2019-06-07T22:26:51.367Z,8.23
2019-06-07T22:29:19.373Z,7.93
2019-06-07T22:31:46.472Z,8.40
2019-06-07T22:34:14.980Z,7.63
2019-06-07T22:36:42.831Z,7.07
2019-06-07T22:39:11.783Z,6.20
2019-06-07T22:41:39.319Z,6.23
2019-06-07T22:44:07.092Z,6.00
2019-06-07T22:46:37.708Z,7.40
2019-06-07T22:49:09.193Z,7.13
2019-06-07T22:51:36.367Z,9.03
2019-06-07T22:54:03.311Z,9.40
2019-06-07T22:56:35.820Z,9.70
2019-06-07T22:59:05.501Z,9.00
2019-06-07T23:01:32.747Z,10.17
2019-06-07T23:03:59.395Z,9.47
2019-06-07T23:06:26.014Z,6.57
2019-06-07T23:08:53.376Z,7.90
2019-06-07T23:11:21.754Z,6.90
2019-06-07T23:13:48.801Z,6.53
2019-06-07T23:16:15.805Z,6.43
2019-06-07T23:18:42.927Z,6.37
2019-06-07T23:21:09.941Z,7.23
2019-06-07T23:23:36.679Z,6.50
2019-06-07T23:26:04.572Z,6.37
2019-06-07T23:28:32.295Z,7.57
2019-06-07T23:31:01.365Z,7.50
2019-06-07T23:33:29.094Z,7.60
2019-06-07T23:35:56.932Z,7.20
2019-06-07T23:38:23.560Z,6.90
2019-06-07T23:40:50.666Z,8.00
2019-06-07T23:43:17.699Z,8.60
2019-06-07T23:45:46.663Z,7.13
2019-06-07T23:48:13.609Z,8.73
2019-06-07T23:50:41.372Z,6.77
2019-06-07T23:53:08.423Z,8.50
2019-06-07T23:55:35.463Z,7.33
2019-06-07T23:58:02.524Z,8.80
